Time;durP1;ratioP1;P1;durP2;ratioP2;P2;SDS_P1;SDS_P2;PMS_P1;PMS_P2;Temp;Humidity;BMP_temperature;BMP_pressure;BME280_temperature;BME280_humidity;BME280_pressure;Samples;Min_cycle;Max_cycle;Signal;HPM_P1;HPM_P2
2023/04/07 00:00:59;;;;;;;27.87;6.07;;;16.40;55.40;;;;;;5128173;27;20200;-88
2023/04/07 00:03:26;;;;;;;35.13;6.07;;;16.40;55.40;;;;;;5131228;27;20201;-89
2023/04/07 00:05:53;;;;;;;44.33;7.07;;;16.50;55.50;;;;;;5127025;27;20212;-89
2023/04/07 00:08:20;;;;;;;43.17;7.00;;;16.40;55.50;;;;;;5114014;27;20206;-89
2023/04/07 00:10:47;;;;;;;33.37;6.30;;;16.40;55.40;;;;;;5131575;27;20200;-91
2023/04/07 00:13:15;;;;;;;68.63;8.83;;;16.40;55.50;;;;;;5128141;27;20230;-93
2023/04/07 00:15:44;;;;;;;29.30;6.07;;;16.40;55.50;;;;;;5120557;27;20204;-91
2023/04/07 00:18:13;;;;;;;26.13;5.67;;;16.40;55.50;;;;;;5121859;27;20204;-90
2023/04/07 00:20:43;;;;;;;49.70;7.63;;;16.40;55.50;;;;;;5129001;27;20194;-89
2023/04/07 00:23:10;;;;;;;26.40;5.87;;;16.40;55.50;;;;;;5120033;27;20844;-89
2023/04/07 00:25:36;;;;;;;37.87;7.03;;;16.40;55.50;;;;;;5112173;27;20194;-88
2023/04/07 00:28:03;;;;;;;28.63;5.73;;;16.40;55.50;;;;;;5117733;27;20202;-89
2023/04/07 00:30:30;;;;;;;25.60;5.30;;;16.40;55.50;;;;;;5110533;27;20204;-88
2023/04/07 00:32:59;;;;;;;26.00;5.83;;;16.40;55.80;;;;;;5115117;27;20686;-89
2023/04/07 00:35:25;;;;;;;25.03;5.57;;;16.30;55.40;;;;;;5126959;27;20201;-88
2023/04/07 00:37:52;;;;;;;27.27;6.17;;;16.40;55.50;;;;;;5128668;27;20193;-88
2023/04/07 00:40:19;;;;;;;36.23;6.77;;;16.30;55.50;;;;;;5121760;27;20220;-88
2023/04/07 00:42:47;;;;;;;40.87;6.87;;;16.40;55.60;;;;;;5118444;27;20217;-88
2023/04/07 00:45:14;;;;;;;23.27;5.50;;;16.20;55.40;;;;;;5112514;27;20200;-88
2023/04/07 00:47:41;;;;;;;33.70;6.53;;;16.30;55.40;;;;;;5126770;27;20875;-88
2023/04/07 00:50:10;;;;;;;32.87;6.13;;;16.30;55.40;;;;;;5112512;27;20976;-88
2023/04/07 00:52:37;;;;;;;36.93;7.03;;;16.30;55.50;;;;;;5112740;27;20226;-89
2023/04/07 00:55:05;;;;;;;30.73;6.57;;;16.30;55.50;;;;;;5136678;27;20208;-88
2023/04/07 00:57:32;;;;;;;43.93;7.37;;;16.30;55.50;;;;;;5147791;27;20188;-88
2023/04/07 00:59:59;;;;;;;29.37;6.20;;;16.30;55.50;;;;;;5147235;27;20810;-88
2023/04/07 01:02:33;;;;;;;27.03;6.10;;;16.30;55.50;;;;;;5131302;27;20208;-89
2023/04/07 01:05:09;;;;;;;27.70;6.07;;;16.30;55.60;;;;;;5128385;27;20209;-90
2023/04/07 01:07:44;;;;;;;59.50;8.53;;;16.30;55.60;;;;;;5127673;27;20230;-88
2023/04/07 01:10:18;;;;;;;31.90;6.33;;;16.30;55.50;;;;;;5128186;27;20199;-88
2023/04/07 01:12:52;;;;;;;31.67;6.50;;;16.30;55.50;;;;;;5116095;27;20711;-89
2023/04/07 01:15:21;;;;;;;33.63;6.63;;;16.30;55.50;;;;;;5110333;28;20236;-88
2023/04/07 01:17:57;;;;;;;27.13;5.77;;;16.30;55.60;;;;;;5120034;27;20219;-89
2023/04/07 01:20:27;;;;;;;31.07;6.57;;;16.30;55.50;;;;;;5130656;27;20677;-88
2023/04/07 01:22:58;;;;;;;38.37;6.80;;;16.30;55.50;;;;;;5130410;27;20211;-88
2023/04/07 01:25:44;;;;;;;46.20;7.33;;;16.30;55.60;;;;;;5129188;27;20210;-88
2023/04/07 01:28:28;;;;;;;33.23;6.40;;;16.30;55.60;;;;;;5112095;27;20210;-88
2023/04/07 01:30:58;;;;;;;27.07;5.83;;;16.20;55.50;;;;;;5110384;27;20229;-89
2023/04/07 01:33:27;;;;;;;29.10;6.37;;;16.30;55.60;;;;;;5119801;27;20214;-88
2023/04/07 01:35:56;;;;;;;53.37;8.07;;;16.20;55.40;;;;;;5109221;27;20215;-90
2023/04/07 01:38:24;;;;;;;30.13;6.53;;;16.20;55.50;;;;;;5111957;27;20270;-88
2023/04/07 01:40:53;;;;;;;29.13;6.53;;;16.30;55.60;;;;;;5117658;27;20203;-88
2023/04/07 01:43:21;;;;;;;22.10;5.70;;;16.10;55.40;;;;;;5128905;27;20556;-88
2023/04/07 01:45:48;;;;;;;22.20;5.43;;;16.20;55.50;;;;;;5124006;27;20196;-88
2023/04/07 01:48:17;;;;;;;32.93;6.47;;;16.20;55.50;;;;;;5119385;27;20194;-89
2023/04/07 01:50:46;;;;;;;53.97;8.00;;;16.20;55.50;;;;;;5124238;27;20206;-88
2023/04/07 01:53:15;;;;;;;24.13;5.60;;;16.20;55.50;;;;;;5124335;27;20219;-88
2023/04/07 01:55:42;;;;;;;17.40;5.07;;;16.20;55.50;;;;;;5116663;27;20266;-89
2023/04/07 01:58:09;;;;;;;45.90;7.67;;;16.20;55.50;;;;;;5112926;27;20213;-88
2023/04/07 02:00:36;;;;;;;24.83;5.80;;;16.20;55.50;;;;;;5111787;27;20313;-88
2023/04/07 02:03:09;;;;;;;29.13;5.97;;;16.20;55.50;;;;;;5127157;27;20559;-88
2023/04/07 02:05:39;;;;;;;22.20;5.20;;;16.20;55.50;;;;;;5127802;27;20203;-88
2023/04/07 02:08:09;;;;;;;33.07;6.53;;;16.20;55.50;;;;;;5116699;27;20208;-88
2023/04/07 02:10:38;;;;;;;26.00;6.27;;;16.20;55.50;;;;;;5108389;27;20342;-91
2023/04/07 02:13:08;;;;;;;28.07;6.13;;;16.20;55.50;;;;;;5111503;27;20231;-89
2023/04/07 02:15:37;;;;;;;47.43;7.83;;;16.10;55.40;;;;;;5125634;27;20206;-88
2023/04/07 02:18:06;;;;;;;25.50;5.97;;;16.20;55.50;;;;;;5115512;27;20217;-88
2023/04/07 02:20:37;;;;;;;21.17;5.50;;;16.10;55.40;;;;;;5124583;27;20209;-88
2023/04/07 02:23:04;;;;;;;26.90;5.43;;;16.10;55.40;;;;;;5120275;27;20212;-88
2023/04/07 02:25:33;;;;;;;20.23;5.33;;;16.20;55.60;;;;;;5129839;27;20199;-88
2023/04/07 02:28:01;;;;;;;19.57;4.90;;;16.20;55.50;;;;;;5127313;27;20211;-88
2023/04/07 02:30:28;;;;;;;29.57;5.80;;;16.10;55.40;;;;;;5110845;27;20259;-88
2023/04/07 02:32:55;;;;;;;31.27;6.50;;;16.10;55.40;;;;;;5111081;27;20232;-90
2023/04/07 02:35:22;;;;;;;27.60;6.30;;;16.10;55.40;;;;;;5117329;27;20562;-90
2023/04/07 02:37:51;;;;;;;37.93;7.13;;;16.20;55.50;;;;;;5121107;27;20199;-88
2023/04/07 02:40:18;;;;;;;49.43;8.00;;;16.10;55.40;;;;;;5108920;27;20707;-89
2023/04/07 02:42:46;;;;;;;28.90;6.03;;;16.10;55.40;;;;;;5117330;27;20250;-89
2023/04/07 02:45:12;;;;;;;30.23;6.00;;;16.10;55.40;;;;;;5124166;27;20300;-88
2023/04/07 02:47:40;;;;;;;25.03;5.97;;;16.10;55.40;;;;;;5117242;27;20207;-88
2023/04/07 02:50:08;;;;;;;49.57;7.80;;;16.10;55.40;;;;;;5128030;27;20208;-89
2023/04/07 02:52:35;;;;;;;29.80;6.20;;;16.10;55.40;;;;;;5118629;27;20197;-89
2023/04/07 02:55:03;;;;;;;25.77;5.93;;;16.10;55.40;;;;;;5118980;27;20202;-90
2023/04/07 02:57:33;;;;;;;26.83;6.40;;;16.10;55.40;;;;;;5133867;27;20570;-89
2023/04/07 03:00:00;;;;;;;34.67;6.70;;;16.10;55.40;;;;;;5132868;27;20826;-89
2023/04/07 03:02:26;;;;;;;36.10;6.77;;;16.10;55.40;;;;;;5133764;27;20275;-88
2023/04/07 03:04:53;;;;;;;23.40;5.73;;;16.00;55.30;;;;;;5133461;27;20202;-88
2023/04/07 03:07:20;;;;;;;34.30;6.60;;;16.00;55.30;;;;;;5120941;27;20206;-88
2023/04/07 03:09:47;;;;;;;25.43;5.90;;;16.00;55.30;;;;;;5133444;27;20193;-88
2023/04/07 03:12:15;;;;;;;38.30;7.03;;;16.00;55.30;;;;;;5124091;27;20210;-91
2023/04/07 03:14:42;;;;;;;25.80;5.87;;;16.10;55.40;;;;;;5112557;28;20237;-89
2023/04/07 03:17:09;;;;;;;28.87;5.70;;;16.00;55.30;;;;;;5129286;27;20211;-89
2023/04/07 03:19:36;;;;;;;27.13;6.00;;;16.00;55.30;;;;;;5115692;27;20202;-90
2023/04/07 03:22:03;;;;;;;25.90;6.07;;;16.10;55.40;;;;;;5115811;27;20561;-88
2023/04/07 03:24:30;;;;;;;32.07;6.70;;;16.00;55.30;;;;;;5111568;27;20656;-88
2023/04/07 03:26:57;;;;;;;22.73;5.63;;;16.00;55.30;;;;;;5130438;27;20285;-86
2023/04/07 03:29:25;;;;;;;53.20;8.33;;;16.00;55.30;;;;;;5129775;27;20717;-87
2023/04/07 03:31:52;;;;;;;24.60;5.77;;;16.00;55.30;;;;;;5116735;27;20218;-88
2023/04/07 03:34:19;;;;;;;29.70;5.77;;;16.00;55.30;;;;;;5120697;27;20219;-89
2023/04/07 03:36:46;;;;;;;47.10;7.37;;;16.00;55.30;;;;;;5116694;27;20204;-89
2023/04/07 03:39:13;;;;;;;43.83;7.20;;;16.00;55.30;;;;;;5116513;27;20210;-88
2023/04/07 03:41:40;;;;;;;28.83;5.67;;;15.90;55.30;;;;;;5131868;27;20208;-88
2023/04/07 03:44:06;;;;;;;24.37;5.73;;;15.90;55.30;;;;;;5121234;27;20204;-88
2023/04/07 03:46:35;;;;;;;27.20;5.63;;;15.90;55.30;;;;;;5118572;27;20204;-88
2023/04/07 03:49:01;;;;;;;27.57;5.53;;;15.90;55.30;;;;;;5128849;27;20201;-88
2023/04/07 03:51:28;;;;;;;30.50;6.07;;;15.90;55.30;;;;;;5125624;27;20697;-88
2023/04/07 03:53:55;;;;;;;25.50;5.60;;;16.00;55.30;;;;;;5124695;27;20228;-92
2023/04/07 03:56:23;;;;;;;56.77;8.07;;;15.90;55.30;;;;;;5119198;27;20562;-88
2023/04/07 03:58:50;;;;;;;28.30;5.93;;;15.90;55.30;;;;;;5122661;27;20204;-87
2023/04/07 04:01:17;;;;;;;35.10;6.40;;;15.90;55.30;;;;;;5111944;27;20207;-88
2023/04/07 04:03:45;;;;;;;39.57;7.07;;;15.90;55.30;;;;;;5124275;27;21131;-90
2023/04/07 04:06:12;;;;;;;23.07;5.10;;;15.90;55.30;;;;;;5111278;27;20212;-90
2023/04/07 04:08:39;;;;;;;24.60;5.93;;;15.90;55.30;;;;;;5117275;27;20204;-89
2023/04/07 04:11:06;;;;;;;35.73;6.53;;;15.90;55.30;;;;;;5122365;27;20212;-89
2023/04/07 04:13:33;;;;;;;25.80;5.83;;;15.90;55.30;;;;;;5111700;27;20685;-88
2023/04/07 04:15:59;;;;;;;39.07;6.57;;;15.90;55.30;;;;;;5121753;27;20206;-89
2023/04/07 04:18:26;;;;;;;24.47;5.73;;;15.90;55.30;;;;;;5111107;27;20864;-88
2023/04/07 04:20:54;;;;;;;18.33;5.40;;;15.90;55.30;;;;;;5113338;27;20206;-88
2023/04/07 04:23:21;;;;;;;27.57;5.43;;;15.90;55.30;;;;;;5114920;27;20267;-89
2023/04/07 04:25:48;;;;;;;54.70;7.73;;;15.90;55.30;;;;;;5112333;27;20198;-89
2023/04/07 04:28:15;;;;;;;39.40;6.93;;;15.90;55.30;;;;;;5118281;27;20198;-89
2023/04/07 04:30:42;;;;;;;52.97;7.90;;;15.90;55.30;;;;;;5118104;27;20221;-89
2023/04/07 04:33:09;;;;;;;60.80;8.47;;;15.80;55.20;;;;;;5135974;27;20211;-89
2023/04/07 04:35:36;;;;;;;45.67;7.37;;;15.90;55.30;;;;;;5111803;27;20745;-92
2023/04/07 04:38:04;;;;;;;40.63;6.70;;;15.90;55.30;;;;;;5110717;27;20634;-88
2023/04/07 04:40:31;;;;;;;43.67;6.73;;;15.80;55.20;;;;;;5113118;27;20213;-88
2023/04/07 04:42:58;;;;;;;38.03;6.67;;;15.80;55.20;;;;;;5122549;27;20207;-89
2023/04/07 04:45:25;;;;;;;30.00;6.07;;;15.80;55.20;;;;;;5127388;27;20543;-88
2023/04/07 04:47:51;;;;;;;26.77;5.83;;;15.80;55.20;;;;;;5119767;27;20193;-92
2023/04/07 04:50:18;;;;;;;26.97;5.63;;;15.80;55.20;;;;;;5117651;27;20628;-90
2023/04/07 04:52:45;;;;;;;27.63;6.03;;;15.80;55.20;;;;;;5114275;27;20710;-92
2023/04/07 04:55:13;;;;;;;27.93;6.17;;;15.80;55.20;;;;;;5143234;27;20217;-92
2023/04/07 04:57:40;;;;;;;23.10;5.57;;;15.80;55.20;;;;;;5148019;27;20206;-92
2023/04/07 05:00:08;;;;;;;36.37;6.60;;;15.80;55.20;;;;;;5131383;27;20598;-90
2023/04/07 05:02:36;;;;;;;49.50;7.73;;;15.80;55.20;;;;;;5117986;27;20229;-91
2023/04/07 05:05:03;;;;;;;35.73;6.43;;;15.80;55.20;;;;;;5110985;27;20672;-92
2023/04/07 05:07:30;;;;;;;19.07;5.03;;;15.70;55.10;;;;;;5113895;27;20193;-91
2023/04/07 05:09:57;;;;;;;29.57;6.03;;;15.70;55.10;;;;;;5120612;27;20654;-94
2023/04/07 05:12:26;;;;;;;33.40;6.70;;;15.70;55.10;;;;;;5112812;27;20215;-92
2023/04/07 05:14:53;;;;;;;40.43;7.10;;;15.70;55.10;;;;;;5123080;27;20294;-93
2023/04/07 05:17:20;;;;;;;28.57;6.33;;;15.70;55.10;;;;;;5129667;27;20222;-93
2023/04/07 05:19:47;;;;;;;32.27;6.33;;;15.70;55.10;;;;;;5121819;27;20657;-91
2023/04/07 05:22:14;;;;;;;28.43;5.90;;;15.70;55.10;;;;;;5128907;27;20206;-92
2023/04/07 05:24:41;;;;;;;26.90;5.87;;;15.80;55.20;;;;;;5131288;27;20660;-88
2023/04/07 05:27:08;;;;;;;39.80;6.67;;;15.70;55.10;;;;;;5138924;27;20201;-89
2023/04/07 05:29:36;;;;;;;34.77;6.53;;;15.70;55.10;;;;;;5125699;27;20224;-92
2023/04/07 05:32:05;;;;;;;29.97;6.27;;;15.70;55.10;;;;;;5109156;27;20201;-88
2023/04/07 05:34:32;;;;;;;24.63;5.70;;;15.60;55.00;;;;;;5109169;27;20239;-89
2023/04/07 05:36:59;;;;;;;25.47;6.20;;;15.70;55.10;;;;;;5110607;27;20210;-87
2023/04/07 05:39:26;;;;;;;27.17;5.63;;;15.70;55.10;;;;;;5120574;27;20203;-88
2023/04/07 05:41:52;;;;;;;19.37;5.70;;;15.60;55.00;;;;;;5124614;27;20567;-91
2023/04/07 05:44:19;;;;;;;31.87;6.10;;;15.60;55.00;;;;;;5125466;27;20292;-90
2023/04/07 05:46:48;;;;;;;29.90;6.23;;;15.60;55.00;;;;;;5120562;27;20213;-88
2023/04/07 05:49:14;;;;;;;30.23;6.30;;;15.60;55.00;;;;;;5123005;27;20205;-88
2023/04/07 05:51:41;;;;;;;24.57;5.90;;;15.60;55.20;;;;;;5110036;28;20221;-91
2023/04/07 05:54:08;;;;;;;43.93;7.40;;;15.60;55.10;;;;;;5117849;27;20215;-91
2023/04/07 05:56:35;;;;;;;51.37;8.17;;;15.60;55.10;;;;;;5115828;27;20202;-88
2023/04/07 05:59:02;;;;;;;20.90;5.13;;;15.60;55.10;;;;;;5113351;27;20198;-89
2023/04/07 06:01:29;;;;;;;34.83;6.83;;;15.60;55.20;;;;;;5126402;27;20197;-89
2023/04/07 06:03:58;;;;;;;41.33;7.13;;;15.60;55.20;;;;;;5114503;27;20211;-91
2023/04/07 06:06:28;;;;;;;56.33;8.03;;;15.60;55.20;;;;;;5137913;27;20297;-88
2023/04/07 06:08:55;;;;;;;53.53;8.00;;;15.60;55.20;;;;;;5126765;27;20273;-89
2023/04/07 06:11:22;;;;;;;37.73;6.87;;;15.60;55.20;;;;;;5122138;27;20215;-92
2023/04/07 06:13:48;;;;;;;40.30;7.10;;;15.60;55.20;;;;;;5129636;27;20248;-87
2023/04/07 06:16:15;;;;;;;51.03;8.00;;;15.60;55.20;;;;;;5109552;27;20220;-87
2023/04/07 06:18:42;;;;;;;34.70;6.77;;;15.60;55.20;;;;;;5108129;27;20209;-87
2023/04/07 06:21:10;;;;;;;30.83;6.50;;;15.60;55.20;;;;;;5132761;27;20195;-87
2023/04/07 06:23:37;;;;;;;43.37;7.83;;;15.60;55.20;;;;;;5126429;27;20193;-89
2023/04/07 06:26:05;;;;;;;33.13;6.10;;;15.50;55.20;;;;;;5115654;27;20199;-89
2023/04/07 06:28:31;;;;;;;35.60;7.03;;;15.50;55.10;;;;;;5121317;27;20261;-88
2023/04/07 06:30:58;;;;;;;29.53;6.47;;;15.50;55.20;;;;;;5128165;27;20206;-86
2023/04/07 06:33:27;;;;;;;35.57;6.57;;;15.50;55.20;;;;;;5127654;27;20583;-88
2023/04/07 06:35:55;;;;;;;31.87;6.60;;;15.50;55.20;;;;;;5122722;27;20664;-89
2023/04/07 06:38:23;;;;;;;34.93;6.47;;;15.50;55.20;;;;;;5111813;27;20229;-89
2023/04/07 06:40:51;;;;;;;33.17;6.47;;;15.50;55.20;;;;;;5127718;27;20194;-88
2023/04/07 06:43:18;;;;;;;38.33;7.30;;;15.50;55.20;;;;;;5111381;27;20650;-88
2023/04/07 06:45:45;;;;;;;38.10;7.10;;;15.50;55.20;;;;;;5109802;28;20654;-90
2023/04/07 06:48:15;;;;;;;33.70;6.30;;;15.60;55.30;;;;;;5108976;28;20282;-89
2023/04/07 06:50:42;;;;;;;32.90;6.80;;;15.50;55.20;;;;;;5108389;28;20541;-88
2023/04/07 06:53:08;;;;;;;47.60;8.03;;;15.50;55.20;;;;;;5119897;28;20207;-90
2023/04/07 06:55:37;;;;;;;36.53;6.57;;;15.60;55.30;;;;;;5111571;28;20252;-90
2023/04/07 06:58:04;;;;;;;34.50;6.40;;;15.50;55.20;;;;;;5115394;28;20197;-90
2023/04/07 07:00:31;;;;;;;33.77;6.33;;;15.50;55.20;;;;;;5142813;27;20244;-86
2023/04/07 07:02:58;;;;;;;25.83;5.67;;;15.50;55.30;;;;;;5132853;28;20204;-89
2023/04/07 07:05:25;;;;;;;50.73;7.97;;;15.50;55.20;;;;;;5129034;28;20191;-90
2023/04/07 07:07:53;;;;;;;25.83;5.70;;;15.50;55.30;;;;;;5129609;28;20641;-91
2023/04/07 07:10:21;;;;;;;28.57;6.10;;;15.50;55.30;;;;;;5117245;27;20205;-87
2023/04/07 07:12:51;;;;;;;33.50;6.73;;;15.50;55.30;;;;;;5111468;27;20202;-90
2023/04/07 07:15:18;;;;;;;52.77;8.20;;;15.50;55.30;;;;;;5127951;27;20256;-88
2023/04/07 07:17:46;;;;;;;29.27;6.53;;;15.50;55.30;;;;;;5123387;27;20213;-90
2023/04/07 07:20:13;;;;;;;32.90;6.60;;;15.50;55.30;;;;;;5129571;28;20197;-94
2023/04/07 07:22:40;;;;;;;36.90;7.40;;;15.50;55.30;;;;;;5128365;28;20207;-92
2023/04/07 07:25:07;;;;;;;20.80;6.83;;;15.50;55.30;;;;;;5110254;28;20610;-91
2023/04/07 07:27:35;;;;;;;35.87;7.53;;;15.50;55.30;;;;;;5109038;28;20232;-91
2023/04/07 07:30:03;;;;;;;24.97;6.83;;;15.50;55.30;;;;;;5109066;28;20237;-90
2023/04/07 07:32:30;;;;;;;26.53;7.20;;;15.50;55.40;;;;;;5110418;28;20251;-94
2023/04/07 07:34:59;;;;;;;22.17;6.80;;;15.60;55.40;;;;;;5113593;27;20224;-89
2023/04/07 07:37:26;;;;;;;31.83;7.03;;;15.60;55.50;;;;;;5112857;27;20652;-94
2023/04/07 07:39:55;;;;;;;29.67;7.20;;;15.60;55.50;;;;;;5112055;28;20202;-91
2023/04/07 07:42:22;;;;;;;26.20;7.40;;;15.60;55.50;;;;;;5098897;27;20208;-92
2023/04/07 07:44:48;;;;;;;51.43;8.90;;;15.50;55.50;;;;;;5129314;27;20221;-88
2023/04/07 07:47:17;;;;;;;26.77;7.37;;;15.70;55.70;;;;;;5112091;27;20210;-90
2023/04/07 07:49:44;;;;;;;34.57;8.10;;;15.60;55.60;;;;;;5112077;28;20240;-89
2023/04/07 07:52:11;;;;;;;38.50;8.10;;;15.60;55.60;;;;;;5121128;27;20673;-88
2023/04/07 07:54:38;;;;;;;47.20;9.10;;;15.60;55.60;;;;;;5131876;27;20211;-91
2023/04/07 07:57:05;;;;;;;41.70;8.57;;;15.70;55.70;;;;;;5118116;27;20214;-87
2023/04/07 07:59:31;;;;;;;37.93;8.97;;;15.60;55.60;;;;;;5127407;27;20298;-87
2023/04/07 08:01:58;;;;;;;28.57;7.77;;;15.60;55.60;;;;;;5128195;27;20213;-93
2023/04/07 08:04:28;;;;;;;49.63;9.70;;;15.60;55.60;;;;;;5124809;27;20196;-92
2023/04/07 08:06:55;;;;;;;41.80;8.87;;;15.70;55.70;;;;;;5112281;27;20568;-88
2023/04/07 08:09:22;;;;;;;29.17;8.33;;;15.70;55.60;;;;;;5112001;27;20200;-88
2023/04/07 08:11:49;;;;;;;38.90;9.37;;;15.70;55.70;;;;;;5111337;28;20293;-91
2023/04/07 08:14:17;;;;;;;31.65;9.30;;;15.70;55.70;;;;;;5111636;27;20198;-89
2023/04/07 08:16:44;;;;;;;36.90;9.53;;;15.70;55.70;;;;;;5118248;27;20215;-91
2023/04/07 08:19:12;;;;;;;39.20;10.43;;;15.70;55.70;;;;;;5128368;27;20225;-91
2023/04/07 08:21:40;;;;;;;41.57;9.70;;;15.70;55.70;;;;;;5131939;27;20225;-92
2023/04/07 08:24:09;;;;;;;32.93;9.20;;;15.70;55.70;;;;;;5131120;27;20248;-88
2023/04/07 08:26:35;;;;;;;30.67;8.57;;;15.70;55.70;;;;;;5116280;27;20221;-96
2023/04/07 08:29:02;;;;;;;34.10;9.40;;;15.70;55.70;;;;;;5147447;27;20202;-88
2023/04/07 08:31:29;;;;;;;39.60;10.43;;;15.70;55.70;;;;;;5140593;27;20201;-87
2023/04/07 08:33:57;;;;;;;37.43;10.50;;;15.70;55.70;;;;;;5131419;27;20228;-91
2023/04/07 08:36:25;;;;;;;29.73;9.67;;;15.60;55.60;;;;;;5130124;27;20685;-92
2023/04/07 08:38:53;;;;;;;37.27;11.10;;;15.70;55.70;;;;;;5115416;27;20230;-91
2023/04/07 08:41:27;;;;;;;32.30;10.63;;;15.70;55.70;;;;;;5130537;27;20683;-93
2023/04/07 08:43:55;;;;;;;46.67;11.50;;;15.70;55.70;;;;;;5128568;27;20729;-91
2023/04/07 08:46:23;;;;;;;37.20;10.13;;;15.70;55.70;;;;;;5124971;27;20566;-89
2023/04/07 08:48:52;;;;;;;40.93;10.53;;;15.70;55.70;;;;;;5125300;27;20663;-90
2023/04/07 08:51:28;;;;;;;31.23;10.37;;;15.70;55.70;;;;;;5133798;27;20253;-89
2023/04/07 08:54:03;;;;;;;39.40;10.93;;;15.70;55.70;;;;;;5132695;27;20672;-92
2023/04/07 08:56:32;;;;;;;35.67;10.33;;;15.80;55.80;;;;;;5119511;27;20231;-90
2023/04/07 08:59:00;;;;;;;36.97;10.03;;;15.80;55.70;;;;;;5117053;27;20580;-88
2023/04/07 09:01:27;;;;;;;59.03;11.97;;;15.70;55.70;;;;;;5111144;27;20261;-95
2023/04/07 09:03:57;;;;;;;39.47;11.17;;;15.80;55.80;;;;;;5131723;27;20589;-93
2023/04/07 09:06:26;;;;;;;33.80;9.90;;;15.80;55.80;;;;;;5129424;27;20206;-96
2023/04/07 09:08:52;;;;;;;35.70;10.37;;;15.70;55.70;;;;;;5110879;27;20195;-93
2023/04/07 09:11:22;;;;;;;34.83;10.40;;;15.80;55.80;;;;;;5124176;27;20203;-88
2023/04/07 09:13:50;;;;;;;32.13;10.00;;;15.80;55.80;;;;;;5130112;27;20212;-87
2023/04/07 09:16:17;;;;;;;40.33;10.63;;;15.90;55.90;;;;;;5116056;27;20231;-91
2023/04/07 09:18:44;;;;;;;32.27;9.77;;;15.80;55.80;;;;;;5110198;27;20199;-89
2023/04/07 09:21:11;;;;;;;33.57;10.33;;;15.80;55.80;;;;;;5123096;27;20231;-88
2023/04/07 09:23:39;;;;;;;31.10;9.10;;;15.90;55.90;;;;;;5130915;27;20204;-87
2023/04/07 09:26:30;;;;;;;39.23;10.53;;;15.90;55.90;;;;;;5119794;27;20706;-89
2023/04/07 09:28:58;;;;;;;56.17;12.23;;;15.80;55.90;;;;;;5111588;27;20214;-91
2023/04/07 09:31:47;;;;;;;31.80;10.30;;;15.80;55.80;;;;;;5110198;27;20289;-88
2023/04/07 09:34:25;;;;;;;47.63;12.73;;;15.80;55.90;;;;;;5116500;27;20302;-91
2023/04/07 09:36:51;;;;;;;47.67;13.87;;;15.90;55.90;;;;;;5113118;27;20218;-89
2023/04/07 09:39:19;;;;;;;37.17;13.10;;;15.90;55.90;;;;;;5110149;28;20197;-88
2023/04/07 09:41:47;;;;;;;36.00;12.53;;;15.90;56.00;;;;;;5119943;27;20724;-89
2023/04/07 09:44:14;;;;;;;57.27;13.90;;;15.90;55.90;;;;;;5108793;27;20878;-88
2023/04/07 09:46:49;;;;;;;39.63;12.23;;;15.90;56.00;;;;;;5125860;27;20212;-88
2023/04/07 09:49:16;;;;;;;55.07;13.83;;;15.90;56.00;;;;;;5114232;27;20208;-89
2023/04/07 09:51:54;;;;;;;34.03;12.40;;;15.90;55.90;;;;;;5128004;27;20251;-91
2023/04/07 09:54:35;;;;;;;80.17;15.87;;;15.90;56.00;;;;;;5113607;27;20207;-88
2023/04/07 09:57:04;;;;;;;38.00;13.00;;;15.90;56.00;;;;;;5112783;27;20283;-89
2023/04/07 09:59:33;;;;;;;54.07;13.60;;;15.90;55.90;;;;;;5115806;27;20647;-89
2023/04/07 10:02:06;;;;;;;45.30;11.83;;;15.90;56.00;;;;;;5125534;27;20871;-95
2023/04/07 10:04:33;;;;;;;43.83;12.50;;;15.90;55.90;;;;;;5118312;27;20204;-94
2023/04/07 10:07:02;;;;;;;32.93;11.23;;;16.00;56.00;;;;;;5116636;27;20199;-89
2023/04/07 10:09:32;;;;;;;34.83;11.10;;;16.00;56.00;;;;;;5128659;27;20610;-89
2023/04/07 10:12:06;;;;;;;37.23;11.33;;;16.00;56.00;;;;;;5129978;27;20663;-89
2023/04/07 10:14:35;;;;;;;34.57;11.27;;;16.00;56.10;;;;;;5140961;27;20260;-93
2023/04/07 10:17:06;;;;;;;40.20;11.50;;;16.00;56.00;;;;;;5151041;27;20281;-91
2023/04/07 10:19:34;;;;;;;34.20;10.93;;;16.00;56.10;;;;;;5151462;27;20572;-91
2023/04/07 10:22:05;;;;;;;37.73;11.17;;;16.00;56.70;;;;;;5151180;27;20676;-92
2023/04/07 10:24:49;;;;;;;33.00;10.50;;;16.00;56.10;;;;;;5148144;27;20232;-89
2023/04/07 10:27:21;;;;;;;38.07;10.87;;;16.00;56.20;;;;;;5138565;27;20200;-89
2023/04/07 10:29:52;;;;;;;35.20;10.57;;;16.10;56.20;;;;;;5151563;27;20198;-91
2023/04/07 10:32:21;;;;;;;43.23;10.97;;;16.10;56.20;;;;;;5152958;27;20205;-89
2023/04/07 10:35:03;;;;;;;31.13;10.13;;;16.10;56.20;;;;;;5162797;27;20204;-88
2023/04/07 10:37:32;;;;;;;26.67;9.30;;;16.10;56.20;;;;;;5153871;27;20202;-89
2023/04/07 10:40:30;;;;;;;32.23;9.60;;;16.10;56.20;;;;;;5139340;27;20203;-92
2023/04/07 10:43:08;;;;;;;21.77;8.47;;;16.10;56.30;;;;;;5132658;27;20208;-96
2023/04/07 10:47:05;;;;;;;43.80;10.67;;;16.20;55.80;;;;;;5119673;27;20601;-81
2023/04/07 10:49:33;;;;;;;56.77;11.43;;;16.20;56.50;;;;;;5112050;28;20194;-87
2023/04/07 10:52:22;;;;;;;32.57;10.17;;;16.10;56.30;;;;;;5119255;27;20548;-86
2023/04/07 10:55:08;;;;;;;45.80;10.90;;;16.10;56.40;;;;;;5120519;28;20205;-89
2023/04/07 10:57:36;;;;;;;36.77;10.30;;;16.10;56.20;;;;;;5116256;27;21006;-87
2023/04/07 11:00:21;;;;;;;41.67;10.07;;;16.20;56.20;;;;;;5122915;27;20205;-82
2023/04/07 11:02:50;;;;;;;33.70;8.73;;;16.20;56.20;;;;;;5117123;28;20207;-80
2023/04/07 11:05:21;;;;;;;40.93;9.80;;;16.20;56.10;;;;;;5125751;27;20488;-85
2023/04/07 11:07:57;;;;;;;58.57;10.50;;;16.20;56.10;;;;;;5124854;27;20209;-81
2023/04/07 11:10:24;;;;;;;38.97;9.43;;;16.20;56.10;;;;;;5123865;27;20648;-89
2023/04/07 11:13:02;;;;;;;37.73;9.03;;;16.10;56.00;;;;;;5123971;27;20294;-85
2023/04/07 11:15:29;;;;;;;36.83;8.73;;;16.10;56.00;;;;;;5125710;27;20218;-87
2023/04/07 11:18:17;;;;;;;59.30;11.03;;;16.10;56.60;;;;;;5117513;28;20202;-83
2023/04/07 11:20:46;;;;;;;42.10;9.87;;;16.20;56.00;;;;;;5108572;28;20207;-89
2023/04/07 11:23:14;;;;;;;39.53;8.97;;;16.10;56.00;;;;;;5109208;28;20207;-89
2023/04/07 11:25:46;;;;;;;42.50;8.90;;;16.10;56.00;;;;;;5110068;28;20224;-88
2023/04/07 11:28:14;;;;;;;40.47;8.97;;;16.10;56.00;;;;;;5120929;27;20213;-82
2023/04/07 11:30:47;;;;;;;32.37;8.07;;;16.10;56.00;;;;;;5118202;28;20232;-85
2023/04/07 11:33:19;;;;;;;42.47;8.47;;;16.10;56.00;;;;;;5113269;28;20280;-83
2023/04/07 11:35:57;;;;;;;60.53;10.40;;;16.00;55.90;;;;;;5122512;27;20210;-80
2023/04/07 11:38:27;;;;;;;37.30;8.23;;;16.00;55.90;;;;;;5120123;28;20602;-80
2023/04/07 11:40:55;;;;;;;71.00;11.33;;;16.00;55.90;;;;;;5118138;28;20197;-81
2023/04/07 11:43:24;;;;;;;34.27;8.17;;;16.00;55.90;;;;;;5120088;28;20306;-80
2023/04/07 11:46:07;;;;;;;34.07;7.37;;;16.00;55.90;;;;;;5109513;28;20216;-80
2023/04/07 11:48:36;;;;;;;38.10;7.97;;;16.00;56.00;;;;;;5104501;28;20198;-81
2023/04/07 11:51:04;;;;;;;36.70;8.17;;;16.00;56.00;;;;;;5107305;28;20228;-79
2023/04/07 11:53:32;;;;;;;54.60;9.57;;;16.00;56.00;;;;;;5116112;27;20213;-80
2023/04/07 11:56:04;;;;;;;41.57;8.90;;;15.90;55.90;;;;;;5110245;28;20203;-82
2023/04/07 11:58:32;;;;;;;50.60;8.67;;;16.00;56.00;;;;;;5106382;28;20206;-81
2023/04/07 12:01:03;;;;;;;33.87;7.67;;;16.00;56.00;;;;;;5096331;28;20228;-82
2023/04/07 12:03:31;;;;;;;32.53;7.10;;;16.00;56.00;;;;;;5099101;28;20595;-82
2023/04/07 12:06:00;;;;;;;40.27;8.00;;;15.90;55.90;;;;;;5095066;28;20230;-81
2023/04/07 12:08:41;;;;;;;29.57;6.93;;;16.00;56.00;;;;;;5100939;28;20993;-81
2023/04/07 12:11:09;;;;;;;38.33;7.97;;;15.90;56.00;;;;;;5094545;28;20205;-81
2023/04/07 12:13:36;;;;;;;43.33;8.17;;;16.00;56.00;;;;;;5096561;28;20195;-83
2023/04/07 12:16:03;;;;;;;58.70;8.93;;;15.90;56.00;;;;;;5098675;28;20208;-82
2023/04/07 12:18:30;;;;;;;41.43;8.03;;;15.90;56.00;;;;;;5090341;28;20289;-82
2023/04/07 12:20:57;;;;;;;41.07;7.43;;;16.00;56.10;;;;;;5106139;28;20318;-82
2023/04/07 12:23:26;;;;;;;72.57;10.00;;;15.90;56.10;;;;;;5096540;28;20720;-81
2023/04/07 12:25:53;;;;;;;70.70;10.60;;;16.00;56.20;;;;;;5087037;28;20717;-84
2023/04/07 12:28:20;;;;;;;51.77;8.03;;;15.90;56.10;;;;;;5089445;28;20290;-84
2023/04/07 12:30:46;;;;;;;31.57;6.50;;;15.90;56.20;;;;;;5090110;28;20298;-84
2023/04/07 12:33:15;;;;;;;29.20;6.57;;;16.00;56.30;;;;;;5103548;28;20202;-85
2023/04/07 12:35:42;;;;;;;18.97;5.27;;;16.00;56.20;;;;;;5108569;28;20620;-87
2023/04/07 12:38:09;;;;;;;60.10;8.90;;;16.00;56.30;;;;;;5109043;28;20215;-85
2023/04/07 12:40:37;;;;;;;43.77;7.80;;;16.00;56.20;;;;;;5088712;28;20195;-86
2023/04/07 12:43:04;;;;;;;28.97;6.33;;;16.10;56.30;;;;;;5089422;28;20208;-85
2023/04/07 12:45:34;;;;;;;25.10;5.83;;;16.10;56.30;;;;;;5089012;28;20231;-85